sensor_id;sensor_type;location;lat;lon;timestamp;P1;durP1;ratioP1;P2;durP2;ratioP2
37280;SDS011;23169;41.804;12.596;2023-07-29T00:02:06;7.03;;;3.15;;
37280;SDS011;23169;41.804;12.596;2023-07-29T00:04:36;11.75;;;3.38;;
37280;SDS011;23169;41.804;12.596;2023-07-29T00:07:07;7.60;;;3.10;;
37280;SDS011;23169;41.804;12.596;2023-07-29T00:09:37;8.23;;;3.63;;
37280;SDS011;23169;41.804;12.596;2023-07-29T00:12:06;9.80;;;3.47;;
37280;SDS011;23169;41.804;12.596;2023-07-29T00:14:36;10.13;;;3.70;;
37280;SDS011;23169;41.804;12.596;2023-07-29T00:17:05;8.07;;;2.97;;
37280;SDS011;23169;41.804;12.596;2023-07-29T00:19:36;8.77;;;4.07;;
37280;SDS011;23169;41.804;12.596;2023-07-29T00:22:05;11.85;;;3.22;;
37280;SDS011;23169;41.804;12.596;2023-07-29T00:24:39;7.97;;;3.65;;
37280;SDS011;23169;41.804;12.596;2023-07-29T00:27:07;10.07;;;3.40;;
37280;SDS011;23169;41.804;12.596;2023-07-29T00:29:37;9.18;;;3.60;;
37280;SDS011;23169;41.804;12.596;2023-07-29T00:32:06;11.20;;;3.45;;
37280;SDS011;23169;41.804;12.596;2023-07-29T00:34:36;6.30;;;3.05;;
37280;SDS011;23169;41.804;12.596;2023-07-29T00:37:05;11.80;;;3.60;;
37280;SDS011;23169;41.804;12.596;2023-07-29T00:39:36;9.20;;;3.83;;
37280;SDS011;23169;41.804;12.596;2023-07-29T00:42:08;11.50;;;3.78;;
37280;SDS011;23169;41.804;12.596;2023-07-29T00:44:41;11.77;;;3.90;;
37280;SDS011;23169;41.804;12.596;2023-07-29T00:47:11;10.25;;;4.13;;
37280;SDS011;23169;41.804;12.596;2023-07-29T00:49:43;10.35;;;4.10;;
37280;SDS011;23169;41.804;12.596;2023-07-29T00:52:13;7.82;;;3.13;;
37280;SDS011;23169;41.804;12.596;2023-07-29T00:54:42;10.05;;;3.90;;
37280;SDS011;23169;41.804;12.596;2023-07-29T00:57:10;9.73;;;3.80;;
37280;SDS011;23169;41.804;12.596;2023-07-29T00:59:43;7.43;;;3.88;;
37280;SDS011;23169;41.804;12.596;2023-07-29T01:02:12;11.98;;;3.38;;
37280;SDS011;23169;41.804;12.596;2023-07-29T01:04:43;8.70;;;3.05;;
37280;SDS011;23169;41.804;12.596;2023-07-29T01:07:19;10.52;;;3.47;;
37280;SDS011;23169;41.804;12.596;2023-07-29T01:10:00;8.75;;;3.45;;
37280;SDS011;23169;41.804;12.596;2023-07-29T01:13:04;8.45;;;3.03;;
37280;SDS011;23169;41.804;12.596;2023-07-29T01:15:50;7.43;;;3.03;;
37280;SDS011;23169;41.804;12.596;2023-07-29T01:18:25;8.45;;;2.95;;
37280;SDS011;23169;41.804;12.596;2023-07-29T01:20:58;6.55;;;3.25;;
37280;SDS011;23169;41.804;12.596;2023-07-29T01:23:34;9.18;;;3.13;;
37280;SDS011;23169;41.804;12.596;2023-07-29T01:26:04;10.95;;;3.17;;
37280;SDS011;23169;41.804;12.596;2023-07-29T01:28:34;6.88;;;2.90;;
37280;SDS011;23169;41.804;12.596;2023-07-29T01:31:10;7.32;;;3.38;;
37280;SDS011;23169;41.804;12.596;2023-07-29T01:34:06;10.57;;;3.03;;
37280;SDS011;23169;41.804;12.596;2023-07-29T01:36:44;10.73;;;3.40;;
37280;SDS011;23169;41.804;12.596;2023-07-29T01:39:14;10.45;;;3.47;;
37280;SDS011;23169;41.804;12.596;2023-07-29T01:41:47;8.93;;;3.67;;
37280;SDS011;23169;41.804;12.596;2023-07-29T01:44:18;11.85;;;3.50;;
37280;SDS011;23169;41.804;12.596;2023-07-29T01:46:48;7.40;;;3.40;;
37280;SDS011;23169;41.804;12.596;2023-07-29T01:49:19;9.18;;;3.20;;
37280;SDS011;23169;41.804;12.596;2023-07-29T01:51:48;7.70;;;2.92;;
37280;SDS011;23169;41.804;12.596;2023-07-29T01:54:17;12.73;;;4.00;;
37280;SDS011;23169;41.804;12.596;2023-07-29T01:56:46;8.15;;;2.90;;
37280;SDS011;23169;41.804;12.596;2023-07-29T01:59:15;11.52;;;3.05;;
37280;SDS011;23169;41.804;12.596;2023-07-29T02:01:44;16.23;;;3.47;;
37280;SDS011;23169;41.804;12.596;2023-07-29T02:04:14;7.53;;;2.90;;
37280;SDS011;23169;41.804;12.596;2023-07-29T02:06:43;8.02;;;3.10;;
37280;SDS011;23169;41.804;12.596;2023-07-29T02:09:12;8.95;;;3.72;;
37280;SDS011;23169;41.804;12.596;2023-07-29T02:11:42;8.15;;;3.25;;
37280;SDS011;23169;41.804;12.596;2023-07-29T02:14:11;7.45;;;3.47;;
37280;SDS011;23169;41.804;12.596;2023-07-29T02:16:40;7.40;;;2.85;;
37280;SDS011;23169;41.804;12.596;2023-07-29T02:19:09;11.27;;;3.75;;
37280;SDS011;23169;41.804;12.596;2023-07-29T02:21:39;5.40;;;2.90;;
37280;SDS011;23169;41.804;12.596;2023-07-29T02:24:08;6.55;;;2.97;;
37280;SDS011;23169;41.804;12.596;2023-07-29T02:26:37;7.15;;;3.20;;
37280;SDS011;23169;41.804;12.596;2023-07-29T02:29:07;9.57;;;3.50;;
37280;SDS011;23169;41.804;12.596;2023-07-29T02:31:40;13.27;;;3.42;;
37280;SDS011;23169;41.804;12.596;2023-07-29T02:34:09;10.68;;;3.10;;
37280;SDS011;23169;41.804;12.596;2023-07-29T02:36:39;9.43;;;3.00;;
37280;SDS011;23169;41.804;12.596;2023-07-29T02:39:08;8.80;;;2.90;;
37280;SDS011;23169;41.804;12.596;2023-07-29T02:41:37;6.55;;;2.70;;
37280;SDS011;23169;41.804;12.596;2023-07-29T02:44:06;10.80;;;3.42;;
37280;SDS011;23169;41.804;12.596;2023-07-29T02:46:38;15.02;;;4.63;;
37280;SDS011;23169;41.804;12.596;2023-07-29T02:49:06;11.00;;;3.03;;
37280;SDS011;23169;41.804;12.596;2023-07-29T02:51:36;11.15;;;3.40;;
37280;SDS011;23169;41.804;12.596;2023-07-29T02:54:05;8.93;;;3.67;;
37280;SDS011;23169;41.804;12.596;2023-07-29T02:56:34;6.40;;;2.47;;
37280;SDS011;23169;41.804;12.596;2023-07-29T02:59:03;8.70;;;2.92;;
37280;SDS011;23169;41.804;12.596;2023-07-29T03:01:31;7.70;;;3.55;;
37280;SDS011;23169;41.804;12.596;2023-07-29T03:04:00;8.05;;;3.00;;
37280;SDS011;23169;41.804;12.596;2023-07-29T03:06:29;10.20;;;3.35;;
37280;SDS011;23169;41.804;12.596;2023-07-29T03:08:58;8.13;;;3.03;;
37280;SDS011;23169;41.804;12.596;2023-07-29T03:11:27;10.70;;;3.42;;
37280;SDS011;23169;41.804;12.596;2023-07-29T03:13:57;9.10;;;3.13;;
37280;SDS011;23169;41.804;12.596;2023-07-29T03:16:26;12.13;;;3.00;;
37280;SDS011;23169;41.804;12.596;2023-07-29T03:18:55;8.82;;;3.35;;
37280;SDS011;23169;41.804;12.596;2023-07-29T03:21:23;8.88;;;2.88;;
37280;SDS011;23169;41.804;12.596;2023-07-29T03:23:52;6.07;;;2.78;;
37280;SDS011;23169;41.804;12.596;2023-07-29T03:26:22;7.93;;;2.90;;
37280;SDS011;23169;41.804;12.596;2023-07-29T03:28:50;6.97;;;3.10;;
37280;SDS011;23169;41.804;12.596;2023-07-29T03:31:20;11.75;;;3.05;;
37280;SDS011;23169;41.804;12.596;2023-07-29T03:33:49;10.70;;;3.05;;
37280;SDS011;23169;41.804;12.596;2023-07-29T03:36:17;10.68;;;3.35;;
37280;SDS011;23169;41.804;12.596;2023-07-29T03:38:47;10.35;;;3.15;;
37280;SDS011;23169;41.804;12.596;2023-07-29T03:41:18;9.75;;;3.08;;
37280;SDS011;23169;41.804;12.596;2023-07-29T03:43:47;13.25;;;3.60;;
37280;SDS011;23169;41.804;12.596;2023-07-29T03:46:17;11.45;;;3.72;;
37280;SDS011;23169;41.804;12.596;2023-07-29T03:48:49;13.18;;;4.07;;
37280;SDS011;23169;41.804;12.596;2023-07-29T03:51:18;6.80;;;3.65;;
37280;SDS011;23169;41.804;12.596;2023-07-29T03:53:47;12.32;;;3.85;;
37280;SDS011;23169;41.804;12.596;2023-07-29T03:56:16;10.25;;;4.10;;
37280;SDS011;23169;41.804;12.596;2023-07-29T03:58:45;12.98;;;3.70;;
37280;SDS011;23169;41.804;12.596;2023-07-29T04:01:17;11.80;;;3.85;;
37280;SDS011;23169;41.804;12.596;2023-07-29T04:03:46;11.18;;;3.60;;
37280;SDS011;23169;41.804;12.596;2023-07-29T04:06:15;13.10;;;3.65;;
37280;SDS011;23169;41.804;12.596;2023-07-29T04:08:44;8.77;;;3.72;;
37280;SDS011;23169;41.804;12.596;2023-07-29T04:11:15;11.02;;;3.92;;
37280;SDS011;23169;41.804;12.596;2023-07-29T04:13:44;12.00;;;3.97;;
37280;SDS011;23169;41.804;12.596;2023-07-29T04:16:13;15.13;;;4.32;;
37280;SDS011;23169;41.804;12.596;2023-07-29T04:18:42;19.08;;;4.72;;
37280;SDS011;23169;41.804;12.596;2023-07-29T04:21:10;10.75;;;4.43;;
37280;SDS011;23169;41.804;12.596;2023-07-29T04:23:40;9.13;;;4.00;;
37280;SDS011;23169;41.804;12.596;2023-07-29T04:26:09;13.57;;;4.30;;
37280;SDS011;23169;41.804;12.596;2023-07-29T04:28:41;13.05;;;4.30;;
37280;SDS011;23169;41.804;12.596;2023-07-29T04:31:10;14.82;;;5.03;;
37280;SDS011;23169;41.804;12.596;2023-07-29T04:33:41;9.63;;;3.90;;
37280;SDS011;23169;41.804;12.596;2023-07-29T04:36:10;12.48;;;4.38;;
37280;SDS011;23169;41.804;12.596;2023-07-29T04:38:39;12.88;;;4.15;;
37280;SDS011;23169;41.804;12.596;2023-07-29T04:41:11;12.15;;;4.03;;
37280;SDS011;23169;41.804;12.596;2023-07-29T04:43:41;10.68;;;4.22;;
37280;SDS011;23169;41.804;12.596;2023-07-29T04:46:10;9.18;;;3.92;;
37280;SDS011;23169;41.804;12.596;2023-07-29T04:48:40;11.88;;;4.13;;
37280;SDS011;23169;41.804;12.596;2023-07-29T04:51:09;8.85;;;3.58;;
37280;SDS011;23169;41.804;12.596;2023-07-29T04:53:38;9.73;;;4.22;;
37280;SDS011;23169;41.804;12.596;2023-07-29T04:56:09;13.18;;;4.43;;
37280;SDS011;23169;41.804;12.596;2023-07-29T04:58:38;14.07;;;4.47;;
37280;SDS011;23169;41.804;12.596;2023-07-29T05:01:07;11.32;;;4.40;;
37280;SDS011;23169;41.804;12.596;2023-07-29T05:03:37;10.65;;;3.92;;
37280;SDS011;23169;41.804;12.596;2023-07-29T05:06:08;12.68;;;4.78;;
37280;SDS011;23169;41.804;12.596;2023-07-29T05:08:39;10.70;;;4.35;;
37280;SDS011;23169;41.804;12.596;2023-07-29T05:11:08;13.25;;;5.28;;
37280;SDS011;23169;41.804;12.596;2023-07-29T05:13:37;14.05;;;4.97;;
37280;SDS011;23169;41.804;12.596;2023-07-29T05:16:06;10.73;;;4.70;;
37280;SDS011;23169;41.804;12.596;2023-07-29T05:18:35;13.52;;;5.43;;
37280;SDS011;23169;41.804;12.596;2023-07-29T05:21:04;14.55;;;4.18;;
37280;SDS011;23169;41.804;12.596;2023-07-29T05:23:34;12.13;;;4.10;;
37280;SDS011;23169;41.804;12.596;2023-07-29T05:26:03;13.52;;;4.28;;
37280;SDS011;23169;41.804;12.596;2023-07-29T05:28:35;12.77;;;4.13;;
37280;SDS011;23169;41.804;12.596;2023-07-29T05:31:04;11.05;;;3.75;;
37280;SDS011;23169;41.804;12.596;2023-07-29T05:33:32;17.17;;;3.70;;
37280;SDS011;23169;41.804;12.596;2023-07-29T05:36:04;8.77;;;3.58;;
37280;SDS011;23169;41.804;12.596;2023-07-29T05:38:33;15.55;;;4.18;;
37280;SDS011;23169;41.804;12.596;2023-07-29T05:41:04;8.60;;;4.03;;
37280;SDS011;23169;41.804;12.596;2023-07-29T05:43:34;12.05;;;4.55;;
37280;SDS011;23169;41.804;12.596;2023-07-29T05:46:04;14.20;;;6.18;;
37280;SDS011;23169;41.804;12.596;2023-07-29T05:48:33;12.77;;;4.05;;
37280;SDS011;23169;41.804;12.596;2023-07-29T05:51:02;12.27;;;4.63;;
37280;SDS011;23169;41.804;12.596;2023-07-29T05:53:34;19.73;;;4.95;;
37280;SDS011;23169;41.804;12.596;2023-07-29T05:56:05;10.95;;;4.53;;
37280;SDS011;23169;41.804;12.596;2023-07-29T05:58:35;11.02;;;4.40;;
37280;SDS011;23169;41.804;12.596;2023-07-29T06:01:04;12.95;;;4.40;;
37280;SDS011;23169;41.804;12.596;2023-07-29T06:03:33;10.52;;;3.90;;
37280;SDS011;23169;41.804;12.596;2023-07-29T06:06:02;15.38;;;4.22;;
37280;SDS011;23169;41.804;12.596;2023-07-29T06:08:32;13.43;;;4.28;;
37280;SDS011;23169;41.804;12.596;2023-07-29T06:11:02;16.58;;;5.07;;
37280;SDS011;23169;41.804;12.596;2023-07-29T06:13:31;11.52;;;3.85;;
37280;SDS011;23169;41.804;12.596;2023-07-29T06:16:00;21.77;;;4.95;;
37280;SDS011;23169;41.804;12.596;2023-07-29T06:18:31;23.38;;;5.85;;
37280;SDS011;23169;41.804;12.596;2023-07-29T06:21:00;32.35;;;5.45;;
37280;SDS011;23169;41.804;12.596;2023-07-29T06:23:34;17.58;;;4.75;;
37280;SDS011;23169;41.804;12.596;2023-07-29T06:26:02;21.00;;;4.75;;
37280;SDS011;23169;41.804;12.596;2023-07-29T06:28:35;12.30;;;5.00;;
37280;SDS011;23169;41.804;12.596;2023-07-29T06:31:04;10.75;;;3.95;;
37280;SDS011;23169;41.804;12.596;2023-07-29T06:33:33;12.27;;;4.00;;
37280;SDS011;23169;41.804;12.596;2023-07-29T06:36:02;8.15;;;3.55;;
37280;SDS011;23169;41.804;12.596;2023-07-29T06:38:31;13.55;;;4.40;;
37280;SDS011;23169;41.804;12.596;2023-07-29T06:41:00;15.38;;;4.20;;
37280;SDS011;23169;41.804;12.596;2023-07-29T06:43:31;9.23;;;3.72;;
37280;SDS011;23169;41.804;12.596;2023-07-29T06:45:59;11.43;;;3.83;;
37280;SDS011;23169;41.804;12.596;2023-07-29T06:48:30;16.98;;;4.15;;
37280;SDS011;23169;41.804;12.596;2023-07-29T06:50:58;14.77;;;3.58;;
37280;SDS011;23169;41.804;12.596;2023-07-29T06:53:30;13.63;;;3.30;;
37280;SDS011;23169;41.804;12.596;2023-07-29T06:55:59;10.82;;;4.20;;
37280;SDS011;23169;41.804;12.596;2023-07-29T06:58:32;7.32;;;3.40;;
37280;SDS011;23169;41.804;12.596;2023-07-29T07:01:00;11.73;;;3.53;;
37280;SDS011;23169;41.804;12.596;2023-07-29T07:03:34;11.45;;;3.28;;
37280;SDS011;23169;41.804;12.596;2023-07-29T07:06:21;9.82;;;3.58;;
37280;SDS011;23169;41.804;12.596;2023-07-29T07:08:50;14.15;;;4.60;;
37280;SDS011;23169;41.804;12.596;2023-07-29T07:11:20;14.82;;;3.47;;
37280;SDS011;23169;41.804;12.596;2023-07-29T07:13:48;10.52;;;3.33;;
37280;SDS011;23169;41.804;12.596;2023-07-29T07:16:20;14.20;;;3.53;;
37280;SDS011;23169;41.804;12.596;2023-07-29T07:18:49;8.40;;;3.33;;
37280;SDS011;23169;41.804;12.596;2023-07-29T07:21:17;7.22;;;2.95;;
37280;SDS011;23169;41.804;12.596;2023-07-29T07:23:50;11.95;;;3.75;;
37280;SDS011;23169;41.804;12.596;2023-07-29T07:26:18;11.82;;;3.83;;
37280;SDS011;23169;41.804;12.596;2023-07-29T07:28:48;10.15;;;3.42;;
37280;SDS011;23169;41.804;12.596;2023-07-29T07:31:16;9.80;;;3.20;;
37280;SDS011;23169;41.804;12.596;2023-07-29T07:33:45;10.95;;;3.63;;
37280;SDS011;23169;41.804;12.596;2023-07-29T07:36:14;10.05;;;3.50;;
37280;SDS011;23169;41.804;12.596;2023-07-29T07:38:44;8.68;;;3.13;;
37280;SDS011;23169;41.804;12.596;2023-07-29T07:41:13;9.40;;;3.47;;
37280;SDS011;23169;41.804;12.596;2023-07-29T07:43:43;14.70;;;3.70;;
37280;SDS011;23169;41.804;12.596;2023-07-29T07:46:12;8.68;;;3.35;;
37280;SDS011;23169;41.804;12.596;2023-07-29T07:48:41;11.77;;;3.35;;
37280;SDS011;23169;41.804;12.596;2023-07-29T07:51:11;10.13;;;3.60;;
37280;SDS011;23169;41.804;12.596;2023-07-29T07:53:40;7.10;;;3.20;;
37280;SDS011;23169;41.804;12.596;2023-07-29T07:56:10;9.88;;;3.38;;
37280;SDS011;23169;41.804;12.596;2023-07-29T07:58:39;10.25;;;3.58;;
37280;SDS011;23169;41.804;12.596;2023-07-29T08:01:08;8.70;;;3.13;;
37280;SDS011;23169;41.804;12.596;2023-07-29T08:03:37;8.40;;;3.15;;
37280;SDS011;23169;41.804;12.596;2023-07-29T08:06:06;13.82;;;3.38;;
37280;SDS011;23169;41.804;12.596;2023-07-29T08:08:36;8.80;;;3.22;;
37280;SDS011;23169;41.804;12.596;2023-07-29T08:11:05;7.93;;;3.13;;
37280;SDS011;23169;41.804;12.596;2023-07-29T08:13:34;9.68;;;3.45;;
37280;SDS011;23169;41.804;12.596;2023-07-29T08:16:03;5.95;;;3.03;;
37280;SDS011;23169;41.804;12.596;2023-07-29T08:18:32;5.97;;;2.90;;
37280;SDS011;23169;41.804;12.596;2023-07-29T08:21:01;11.68;;;4.43;;
37280;SDS011;23169;41.804;12.596;2023-07-29T08:23:35;11.18;;;3.05;;
37280;SDS011;23169;41.804;12.596;2023-07-29T08:26:05;10.98;;;2.70;;
37280;SDS011;23169;41.804;12.596;2023-07-29T08:28:36;8.27;;;3.40;;
37280;SDS011;23169;41.804;12.596;2023-07-29T08:31:08;8.20;;;2.95;;
37280;SDS011;23169;41.804;12.596;2023-07-29T08:33:37;10.85;;;3.60;;
37280;SDS011;23169;41.804;12.596;2023-07-29T08:36:06;10.15;;;2.83;;
37280;SDS011;23169;41.804;12.596;2023-07-29T08:38:36;12.90;;;3.38;;
37280;SDS011;23169;41.804;12.596;2023-07-29T08:42:07;6.75;;;3.25;;
37280;SDS011;23169;41.804;12.596;2023-07-29T08:44:12;7.40;;;2.65;;
37280;SDS011;23169;41.804;12.596;2023-07-29T08:46:45;10.85;;;3.38;;
37280;SDS011;23169;41.804;12.596;2023-07-29T08:49:15;7.60;;;3.03;;
37280;SDS011;23169;41.804;12.596;2023-07-29T08:51:48;7.97;;;2.80;;
37280;SDS011;23169;41.804;12.596;2023-07-29T08:54:17;8.52;;;3.10;;
37280;SDS011;23169;41.804;12.596;2023-07-29T08:56:48;6.20;;;2.78;;
37280;SDS011;23169;41.804;12.596;2023-07-29T08:59:17;9.52;;;3.05;;
37280;SDS011;23169;41.804;12.596;2023-07-29T09:01:47;9.32;;;2.90;;
37280;SDS011;23169;41.804;12.596;2023-07-29T09:04:17;8.27;;;2.80;;
37280;SDS011;23169;41.804;12.596;2023-07-29T09:06:47;6.57;;;2.63;;
37280;SDS011;23169;41.804;12.596;2023-07-29T09:09:18;9.38;;;3.15;;
37280;SDS011;23169;41.804;12.596;2023-07-29T09:11:48;12.35;;;3.00;;
37280;SDS011;23169;41.804;12.596;2023-07-29T09:14:16;9.63;;;2.92;;
37280;SDS011;23169;41.804;12.596;2023-07-29T09:16:45;8.80;;;3.30;;
37280;SDS011;23169;41.804;12.596;2023-07-29T09:19:15;6.30;;;2.63;;
37280;SDS011;23169;41.804;12.596;2023-07-29T09:21:45;8.70;;;3.20;;
37280;SDS011;23169;41.804;12.596;2023-07-29T09:24:16;11.30;;;3.63;;
37280;SDS011;23169;41.804;12.596;2023-07-29T09:26:48;13.25;;;3.20;;
37280;SDS011;23169;41.804;12.596;2023-07-29T09:29:21;6.50;;;3.13;;
37280;SDS011;23169;41.804;12.596;2023-07-29T09:31:52;15.00;;;5.85;;
37280;SDS011;23169;41.804;12.596;2023-07-29T09:34:21;22.05;;;10.40;;
37280;SDS011;23169;41.804;12.596;2023-07-29T09:36:50;19.92;;;9.95;;
37280;SDS011;23169;41.804;12.596;2023-07-29T09:39:19;12.27;;;5.50;;
37280;SDS011;23169;41.804;12.596;2023-07-29T09:41:52;23.98;;;11.68;;
37280;SDS011;23169;41.804;12.596;2023-07-29T09:44:22;15.13;;;6.82;;
37280;SDS011;23169;41.804;12.596;2023-07-29T09:46:51;11.63;;;4.75;;
37280;SDS011;23169;41.804;12.596;2023-07-29T09:49:21;11.18;;;4.40;;
37280;SDS011;23169;41.804;12.596;2023-07-29T09:51:50;11.93;;;3.92;;
37280;SDS011;23169;41.804;12.596;2023-07-29T09:54:19;6.47;;;3.60;;
37280;SDS011;23169;41.804;12.596;2023-07-29T09:56:49;7.32;;;2.97;;
37280;SDS011;23169;41.804;12.596;2023-07-29T09:59:19;5.00;;;3.08;;
37280;SDS011;23169;41.804;12.596;2023-07-29T10:01:47;9.27;;;2.95;;
37280;SDS011;23169;41.804;12.596;2023-07-29T10:04:16;10.57;;;3.28;;
37280;SDS011;23169;41.804;12.596;2023-07-29T10:06:45;5.13;;;3.10;;
37280;SDS011;23169;41.804;12.596;2023-07-29T10:09:15;9.20;;;3.35;;
37280;SDS011;23169;41.804;12.596;2023-07-29T10:11:48;6.57;;;2.78;;
37280;SDS011;23169;41.804;12.596;2023-07-29T10:14:18;6.65;;;3.03;;
37280;SDS011;23169;41.804;12.596;2023-07-29T10:16:48;7.00;;;2.92;;
37280;SDS011;23169;41.804;12.596;2023-07-29T10:19:17;7.50;;;3.28;;
37280;SDS011;23169;41.804;12.596;2023-07-29T10:21:47;7.85;;;3.10;;
37280;SDS011;23169;41.804;12.596;2023-07-29T10:24:22;6.05;;;2.67;;
37280;SDS011;23169;41.804;12.596;2023-07-29T10:26:58;7.82;;;3.40;;
37280;SDS011;23169;41.804;12.596;2023-07-29T10:29:30;7.97;;;3.30;;
37280;SDS011;23169;41.804;12.596;2023-07-29T10:32:01;7.10;;;3.15;;
37280;SDS011;23169;41.804;12.596;2023-07-29T10:34:32;11.27;;;3.60;;
37280;SDS011;23169;41.804;12.596;2023-07-29T10:37:04;6.30;;;3.28;;
37280;SDS011;23169;41.804;12.596;2023-07-29T10:39:44;10.13;;;3.22;;
37280;SDS011;23169;41.804;12.596;2023-07-29T10:42:21;8.37;;;3.47;;
37280;SDS011;23169;41.804;12.596;2023-07-29T10:44:51;8.05;;;3.17;;
37280;SDS011;23169;41.804;12.596;2023-07-29T10:47:24;8.82;;;3.30;;
37280;SDS011;23169;41.804;12.596;2023-07-29T10:49:57;7.40;;;2.65;;
37280;SDS011;23169;41.804;12.596;2023-07-29T10:52:39;6.65;;;3.22;;
37280;SDS011;23169;41.804;12.596;2023-07-29T10:55:28;7.25;;;3.22;;
37280;SDS011;23169;41.804;12.596;2023-07-29T10:58:15;5.65;;;2.97;;
37280;SDS011;23169;41.804;12.596;2023-07-29T11:00:46;6.95;;;2.92;;
37280;SDS011;23169;41.804;12.596;2023-07-29T11:03:17;7.25;;;3.05;;
37280;SDS011;23169;41.804;12.596;2023-07-29T11:05:52;8.07;;;2.95;;
37280;SDS011;23169;41.804;12.596;2023-07-29T11:08:25;7.55;;;3.33;;
37280;SDS011;23169;41.804;12.596;2023-07-29T11:13:28;9.45;;;3.17;;
37280;SDS011;23169;41.804;12.596;2023-07-29T11:16:01;6.05;;;3.08;;
37280;SDS011;23169;41.804;12.596;2023-07-29T11:18:32;7.68;;;3.20;;
37280;SDS011;23169;41.804;12.596;2023-07-29T11:21:03;17.40;;;3.67;;
37280;SDS011;23169;41.804;12.596;2023-07-29T11:23:34;7.25;;;3.10;;
37280;SDS011;23169;41.804;12.596;2023-07-29T11:26:04;7.85;;;3.67;;
37280;SDS011;23169;41.804;12.596;2023-07-29T11:28:37;8.45;;;3.92;;
37280;SDS011;23169;41.804;12.596;2023-07-29T11:31:08;8.10;;;2.90;;
37280;SDS011;23169;41.804;12.596;2023-07-29T11:33:38;6.68;;;3.08;;
37280;SDS011;23169;41.804;12.596;2023-07-29T11:36:16;10.98;;;3.30;;
37280;SDS011;23169;41.804;12.596;2023-07-29T11:38:46;11.05;;;3.42;;
37280;SDS011;23169;41.804;12.596;2023-07-29T11:41:19;7.45;;;2.90;;
37280;SDS011;23169;41.804;12.596;2023-07-29T11:43:50;6.13;;;2.85;;
37280;SDS011;23169;41.804;12.596;2023-07-29T11:46:23;9.80;;;3.45;;
37280;SDS011;23169;41.804;12.596;2023-07-29T11:48:53;7.85;;;3.05;;
37280;SDS011;23169;41.804;12.596;2023-07-29T11:51:22;12.48;;;3.75;;
37280;SDS011;23169;41.804;12.596;2023-07-29T11:53:54;11.60;;;3.55;;
37280;SDS011;23169;41.804;12.596;2023-07-29T11:56:24;9.68;;;3.88;;
37280;SDS011;23169;41.804;12.596;2023-07-29T11:58:53;17.13;;;3.90;;
37280;SDS011;23169;41.804;12.596;2023-07-29T12:01:23;8.40;;;3.20;;
37280;SDS011;23169;41.804;12.596;2023-07-29T12:03:53;8.75;;;3.22;;
37280;SDS011;23169;41.804;12.596;2023-07-29T12:06:25;12.27;;;3.70;;
37280;SDS011;23169;41.804;12.596;2023-07-29T12:08:54;8.77;;;3.20;;
37280;SDS011;23169;41.804;12.596;2023-07-29T12:11:24;5.05;;;3.08;;
37280;SDS011;23169;41.804;12.596;2023-07-29T12:13:53;12.57;;;3.92;;
37280;SDS011;23169;41.804;12.596;2023-07-29T12:16:22;5.97;;;3.33;;
37280;SDS011;23169;41.804;12.596;2023-07-29T12:18:51;10.45;;;3.40;;
37280;SDS011;23169;41.804;12.596;2023-07-29T12:21:20;8.82;;;3.25;;
37280;SDS011;23169;41.804;12.596;2023-07-29T12:23:52;11.05;;;3.50;;
37280;SDS011;23169;41.804;12.596;2023-07-29T12:26:26;8.68;;;2.83;;
37280;SDS011;23169;41.804;12.596;2023-07-29T12:28:56;10.85;;;2.92;;
37280;SDS011;23169;41.804;12.596;2023-07-29T12:31:31;9.88;;;3.63;;
37280;SDS011;23169;41.804;12.596;2023-07-29T12:34:01;5.23;;;2.93;;
37280;SDS011;23169;41.804;12.596;2023-07-29T12:36:49;11.20;;;3.22;;
37280;SDS011;23169;41.804;12.596;2023-07-29T12:39:19;11.13;;;3.40;;
37280;SDS011;23169;41.804;12.596;2023-07-29T12:41:57;3.58;;;2.58;;
37280;SDS011;23169;41.804;12.596;2023-07-29T12:44:32;9.60;;;3.58;;
37280;SDS011;23169;41.804;12.596;2023-07-29T12:47:03;7.10;;;3.13;;
37280;SDS011;23169;41.804;12.596;2023-07-29T12:49:35;6.68;;;2.92;;
37280;SDS011;23169;41.804;12.596;2023-07-29T12:52:04;6.93;;;3.25;;
37280;SDS011;23169;41.804;12.596;2023-07-29T12:54:33;7.43;;;3.17;;
37280;SDS011;23169;41.804;12.596;2023-07-29T12:57:03;7.05;;;3.05;;
37280;SDS011;23169;41.804;12.596;2023-07-29T12:59:33;7.32;;;3.33;;
37280;SDS011;23169;41.804;12.596;2023-07-29T13:02:01;8.43;;;3.00;;
37280;SDS011;23169;41.804;12.596;2023-07-29T13:04:31;11.15;;;4.50;;
37280;SDS011;23169;41.804;12.596;2023-07-29T13:06:59;9.18;;;3.00;;
37280;SDS011;23169;41.804;12.596;2023-07-29T13:09:28;5.38;;;2.58;;
37280;SDS011;23169;41.804;12.596;2023-07-29T13:11:57;10.15;;;3.42;;
37280;SDS011;23169;41.804;12.596;2023-07-29T13:14:26;10.57;;;3.35;;
37280;SDS011;23169;41.804;12.596;2023-07-29T13:16:55;6.35;;;3.08;;
37280;SDS011;23169;41.804;12.596;2023-07-29T13:19:23;10.00;;;3.65;;
37280;SDS011;23169;41.804;12.596;2023-07-29T13:21:55;8.10;;;3.00;;
37280;SDS011;23169;41.804;12.596;2023-07-29T13:24:24;8.93;;;3.40;;
37280;SDS011;23169;41.804;12.596;2023-07-29T13:26:53;8.90;;;3.60;;
37280;SDS011;23169;41.804;12.596;2023-07-29T13:29:22;6.85;;;3.00;;
37280;SDS011;23169;41.804;12.596;2023-07-29T13:31:50;7.35;;;3.42;;
37280;SDS011;23169;41.804;12.596;2023-07-29T13:34:19;7.22;;;3.45;;
37280;SDS011;23169;41.804;12.596;2023-07-29T13:36:51;5.97;;;3.08;;
37280;SDS011;23169;41.804;12.596;2023-07-29T13:39:20;8.13;;;3.25;;
37280;SDS011;23169;41.804;12.596;2023-07-29T13:41:49;9.05;;;2.70;;
37280;SDS011;23169;41.804;12.596;2023-07-29T13:44:18;11.07;;;3.58;;
37280;SDS011;23169;41.804;12.596;2023-07-29T13:46:46;10.43;;;3.35;;
37280;SDS011;23169;41.804;12.596;2023-07-29T13:49:16;5.55;;;2.78;;
37280;SDS011;23169;41.804;12.596;2023-07-29T13:51:46;9.07;;;3.10;;
37280;SDS011;23169;41.804;12.596;2023-07-29T13:54:16;10.43;;;3.58;;
37280;SDS011;23169;41.804;12.596;2023-07-29T13:56:45;8.88;;;3.17;;
37280;SDS011;23169;41.804;12.596;2023-07-29T13:59:14;8.60;;;2.47;;
37280;SDS011;23169;41.804;12.596;2023-07-29T14:01:43;8.32;;;3.00;;
37280;SDS011;23169;41.804;12.596;2023-07-29T14:04:11;5.97;;;2.85;;
37280;SDS011;23169;41.804;12.596;2023-07-29T14:06:40;8.57;;;3.10;;
37280;SDS011;23169;41.804;12.596;2023-07-29T14:09:09;6.45;;;2.60;;
37280;SDS011;23169;41.804;12.596;2023-07-29T14:11:38;10.85;;;3.25;;
37280;SDS011;23169;41.804;12.596;2023-07-29T14:14:10;7.93;;;2.85;;
37280;SDS011;23169;41.804;12.596;2023-07-29T14:16:39;9.70;;;3.17;;
37280;SDS011;23169;41.804;12.596;2023-07-29T14:19:09;8.88;;;2.90;;
37280;SDS011;23169;41.804;12.596;2023-07-29T14:21:39;6.18;;;2.40;;
37280;SDS011;23169;41.804;12.596;2023-07-29T14:24:07;6.63;;;2.05;;
37280;SDS011;23169;41.804;12.596;2023-07-29T14:26:36;5.55;;;2.67;;
37280;SDS011;23169;41.804;12.596;2023-07-29T14:29:08;6.63;;;2.67;;
37280;SDS011;23169;41.804;12.596;2023-07-29T14:31:37;9.75;;;2.42;;
37280;SDS011;23169;41.804;12.596;2023-07-29T14:34:06;8.38;;;2.55;;
37280;SDS011;23169;41.804;12.596;2023-07-29T14:36:35;8.32;;;2.70;;
37280;SDS011;23169;41.804;12.596;2023-07-29T14:39:05;9.50;;;2.88;;
37280;SDS011;23169;41.804;12.596;2023-07-29T14:41:34;10.23;;;3.10;;
37280;SDS011;23169;41.804;12.596;2023-07-29T14:44:03;9.35;;;2.75;;
37280;SDS011;23169;41.804;12.596;2023-07-29T14:46:32;8.93;;;2.53;;
37280;SDS011;23169;41.804;12.596;2023-07-29T14:49:03;7.75;;;2.40;;
37280;SDS011;23169;41.804;12.596;2023-07-29T14:51:33;5.72;;;2.67;;